Latest Weather Observations for Walpole North

IDW60801

Issued at 10:33 pm WST Tuesday 22 August 2017 (issued every 30 minutes, with the page automatically refreshed every 10 minutes)

About weather observations | Map of weather stations | Latest weather observations for WA | Other Formats
Station Details ID: 009998 Name: NORTH WALPOLE Lat: -34.95 Lon: 116.72 Height: 73.0 m
Data from the previous 72 hours. | See also: Recent months at Walpole North
Date/Time
WST
Temp
°C
App
Temp
°C
Dew
Point
°C
Rel
Hum
%
Delta-T
°C
Wind Press
QNH
hPa
Press
MSL
hPa
Rain since
9am
mm
Dir  Spd
km/h
Gust
km/h
Spd
kts
Gust
kts
22/10:30pm 8.7 7.0 6.0 83 1.2 SW 4 7 2 4 1025.9 1025.9 0.2
22/10:00pm 8.6 6.5 5.9 83 1.2 SW 6 6 3 3 1025.8 1025.8 0.2
22/09:30pm 9.0 8.2 6.4 84 1.2 CALM 0 6 0 3 1025.7 1025.7 0.2
22/09:00pm 9.1 7.5 6.5 84 1.2 SW 4 6 2 3 1025.4 1025.4 0.2
22/08:30pm 9.6 8.1 6.7 82 1.4 SW 4 6 2 3 1025.0 1025.0 0.2
22/08:00pm 9.6 8.1 6.7 82 1.4 SW 4 7 2 4 1024.7 1024.7 0.2
22/07:30pm 9.7 7.8 6.6 81 1.5 SW 6 6 3 3 1024.3 1024.3 0.2
22/07:00pm 10.1 8.1 6.4 78 1.7 SW 6 7 3 4 1023.9 1023.9 0.2
22/06:30pm 11.0 9.5 6.9 76 2.0 SW 4 7 2 4 1023.3 1023.3 0.2
22/06:00pm 11.7 9.9 7.0 73 2.2 SW 6 9 3 5 1023.3 1023.3 0.2
22/05:30pm 12.8 10.6 7.7 71 2.5 SW 9 13 5 7 1023.0 1023.0 0.2
22/05:00pm 13.0 10.9 8.1 72 2.4 SSW 9 17 5 9 1022.7 1022.7 0.2
22/04:30pm 13.9 11.3 7.9 67 3.0 SSW 11 19 6 10 1022.5 1022.5 0.2
22/04:00pm 14.5 12.2 8.9 69 2.8 SW 11 22 6 12 1022.3 1022.3 0.2
22/03:30pm 14.4 11.6 8.6 68 2.9 SSW 13 19 7 10 1021.9 1021.9 0.2
22/03:00pm 15.4 12.5 8.2 62 3.6 SW 13 20 7 11 1021.4 1021.4 0.2
22/02:30pm 15.7 13.3 8.7 63 3.6 SW 11 20 6 11 1021.1 1021.1 0.2
22/02:00pm 15.0 11.6 7.5 61 3.7 SW 15 22 8 12 1021.0 1021.0 0.2
22/01:30pm 15.7 13.0 9.1 65 3.4 SW 13 20 7 11 1021.1 1021.1 0.2
22/01:00pm 15.6 12.9 9.1 65 3.3 SW 13 20 7 11 1021.0 1021.0 0.2
22/12:30pm 14.6 11.5 9.0 69 2.9 SSW 15 20 8 11 1021.2 1021.2 0.2
22/12:00pm 14.5 11.6 9.7 73 2.5 SSW 15 22 8 12 1021.3 1021.3 0.2
22/11:30am 14.6 13.2 12.3 86 1.3 SW 11 17 6 9 1021.4 1021.4 0.2
22/11:00am 13.4 11.9 13.1 98 0.2 SSW 13 20 7 11 1021.3 1021.3 0.2
22/10:30am 12.7 12.7 12.5 99 0.1 SSW 4 9 2 5 1021.2 1021.2 0.2
22/10:00am 12.5 12.1 12.5 100 0.0 W 6 7 3 4 1021.1 1021.1 0.2
22/09:30am 11.7 10.9 11.7 100 0.0 W 7 13 4 7 1020.9 1020.9 0.0
22/09:00am 11.5 11.2 11.5 100 0.0 WSW 4 7 2 4 1020.5 1020.5 7.4
22/08:30am 11.3 10.4 11.3 100 0.0 WNW 7 9 4 5 1020.1 1020.1 7.4
22/08:00am 10.8 9.3 10.6 99 0.1 NW 9 13 5 7 1019.7 1019.8 7.4
22/07:30am 10.4 8.0 10.2 99 0.1 WNW 13 17 7 9 1019.4 1019.5 7.2
22/07:00am 10.2 7.4 10.1 99 0.1 NW 15 20 8 11 1019.0 1019.1 7.0
22/06:30am 10.0 8.3 9.9 99 0.1 WNW 9 15 5 8 1018.7 1018.8 6.4
22/06:00am 9.9 8.6 9.8 99 0.1 W 7 11 4 6 1018.2 1018.2 6.2
22/05:30am 10.0 6.8 9.9 99 0.1 NW 17 20 9 11 1018.0 1018.0 5.2
22/05:00am 9.9 7.4 9.8 99 0.1 NW 13 17 7 9 1017.8 1017.8 4.6
22/04:30am 9.9 7.4 9.6 98 0.2 NW 13 20 7 11 1017.8 1017.8 4.2
22/04:00am 10.1 6.8 9.6 97 0.3 WNW 17 22 9 12 1017.7 1017.7 4.2
22/03:30am 10.0 6.3 9.4 96 0.3 NW 19 26 10 14 1017.5 1017.5 4.0
22/03:00am 10.1 6.7 9.2 94 0.4 NW 17 22 9 12 1017.7 1017.7 3.8
22/02:30am 10.3 7.3 9.2 93 0.5 WNW 15 24 8 13 1018.0 1018.0 3.8
22/02:00am 10.5 6.6 9.4 93 0.5 NW 20 28 11 15 1017.8 1017.8 3.8
22/01:30am 10.4 6.5 9.3 93 0.5 NW 20 26 11 14 1017.8 1017.8 3.8
22/01:00am 10.4 6.5 9.6 95 0.4 NNW 20 32 11 17 1017.9 1017.9 3.8
22/12:30am 10.3 6.7 9.7 96 0.3 NNW 19 26 10 14 1018.0 1018.0 3.8
22/12:00am 10.4 6.8 9.9 97 0.3 NW 19 28 10 15 1018.3 1018.3 3.8
 
Date/Time
WST
Temp
°C
App
Temp
°C
Dew
Point
°C
Rel
Hum
%
Delta-T
°C
Wind Press
QNH
hPa
Press
MSL
hPa
Rain since
9am
mm
Dir  Spd
km/h
Gust
km/h
Spd
kts
Gust
kts
21/11:30pm 10.6 7.4 10.1 97 0.3 WNW 17 22 9 12 1018.6 1018.7 3.8
21/11:00pm 10.5 7.4 10.2 98 0.2 NW 17 24 9 13 1018.5 1018.5 3.8
21/10:30pm 10.8 8.1 10.5 98 0.2 NW 15 20 8 11 1018.6 1018.7 3.8
21/10:00pm 10.8 7.8 10.6 99 0.1 NW 17 26 9 14 1018.7 1018.8 3.8
21/09:30pm 10.7 7.1 10.5 99 0.1 NW 20 30 11 16 1018.7 1018.8 3.8
21/09:00pm 10.9 7.5 10.7 99 0.1 NNW 19 26 10 14 1018.7 1018.8 3.8
21/08:30pm 11.2 7.7 11.0 99 0.1 NW 20 28 11 15 1018.6 1018.7 3.8
21/08:00pm 11.3 7.1 11.1 99 0.1 NW 24 32 13 17 1018.4 1018.4 3.8
21/07:30pm 11.3 8.1 11.1 99 0.1 NW 19 26 10 14 1018.1 1018.1 3.8
21/07:00pm 11.3 7.9 11.1 99 0.1 NW 20 30 11 16 1018.1 1018.1 3.8
21/06:30pm 11.4 8.9 11.2 99 0.1 NW 15 24 8 13 1018.0 1018.0 3.8
21/06:00pm 11.5 9.1 11.3 99 0.1 NW 15 22 8 12 1017.9 1017.9 3.0
21/05:30pm 11.6 8.4 11.1 97 0.3 WNW 19 28 10 15 1017.8 1017.8 2.6
21/05:00pm 12.1 8.7 10.7 91 0.7 W 19 33 10 18 1017.4 1017.4 1.4
21/04:30pm 13.6 10.8 11.3 86 1.2 WSW 17 35 9 19 1017.4 1017.4 1.4
21/04:00pm 13.6 11.9 12.5 93 0.6 W 13 19 7 10 1017.1 1017.1 1.4
21/03:30pm 13.8 12.2 12.7 93 0.6 W 13 26 7 14 1017.2 1017.2 1.4
21/03:00pm 13.3 10.4 12.8 97 0.3 WNW 20 32 11 17 1017.2 1017.2 1.4
21/02:30pm 12.3 8.1 11.2 93 0.6 W 24 39 13 21 1017.4 1017.4 1.2
21/02:00pm 13.1 9.8 11.5 90 0.9 WNW 20 30 11 16 1017.3 1017.3 0.6
21/01:30pm 13.3 8.3 9.5 78 1.9 NW 26 39 14 21 1017.5 1017.5 0.4
21/01:00pm 13.8 8.8 10.8 82 1.6 WNW 28 41 15 22 1017.7 1017.7 0.0
21/12:46pm 13.4 8.8 10.9 85 1.3 NW 26 44 14 24 1017.8 1017.8 0.0
21/12:30pm 13.7 11.6 12.3 91 0.8 WNW 15 20 8 11 1018.2 1018.2 0.0
21/12:00pm 14.1 8.9 10.1 77 2.1 NW 28 41 15 22 1018.6 1018.7 0.0
21/11:30am 13.9 9.9 10.5 80 1.8 NW 22 39 12 21 1018.8 1018.9 0.0
21/11:00am 13.2 8.8 10.4 83 1.5 NW 24 35 13 19 1019.3 1019.4 0.0
21/10:30am 13.1 9.8 11.0 87 1.1 NW 19 28 10 15 1019.4 1019.5 0.0
21/10:00am 12.7 9.4 11.6 93 0.6 NW 20 30 11 16 1019.5 1019.6 0.0
21/09:30am 11.6 8.6 10.7 94 0.5 NW 17 22 9 12 1019.6 1019.7 0.0
21/09:00am 10.7 7.5 9.9 95 0.4 NW 17 24 9 13 1019.7 1019.8 0.8
21/08:30am 10.9 7.1 9.8 93 0.6 NW 20 32 11 17 1019.7 1019.8 0.6
21/08:00am 10.3 6.4 9.4 94 0.4 NNW 20 28 11 15 1019.3 1019.4 0.6
21/07:30am 10.0 7.3 9.1 94 0.4 NW 13 20 7 11 1019.1 1019.2 0.6
21/07:00am 10.1 7.0 8.9 92 0.6 NW 15 19 8 10 1018.9 1019.0 0.6
21/06:30am 10.2 6.4 9.1 93 0.5 NW 19 26 10 14 1018.7 1018.8 0.6
21/06:00am 10.2 5.9 9.4 95 0.4 NW 22 30 12 16 1018.8 1018.9 0.6
21/05:30am 10.1 6.4 9.6 97 0.3 NW 19 28 10 15 1018.8 1018.9 0.6
21/05:00am 10.2 6.4 9.7 97 0.3 NW 20 30 11 16 1018.9 1019.0 0.6
21/04:30am 10.2 6.4 9.9 98 0.2 WNW 20 28 11 15 1019.1 1019.2 0.6
21/04:00am 10.2 7.0 10.1 99 0.1 NW 17 26 9 14 1019.0 1019.1 0.6
21/03:30am 10.4 6.9 10.2 99 0.1 WNW 19 28 10 15 1019.1 1019.2 0.6
21/03:00am 10.5 7.0 10.3 99 0.1 NW 19 24 10 13 1019.1 1019.2 0.6
21/02:30am 10.4 7.3 10.2 99 0.1 NW 17 24 9 13 1019.2 1019.3 0.6
21/02:00am 10.4 7.3 10.2 99 0.1 NW 17 24 9 13 1019.3 1019.4 0.4
21/01:30am 10.2 6.7 10.1 99 0.1 NW 19 26 10 14 1019.6 1019.7 0.4
21/01:00am 10.4 6.7 10.2 99 0.1 NW 20 30 11 16 1019.7 1019.8 0.4
21/12:30am 10.2 6.7 10.1 99 0.1 NNW 19 28 10 15 1019.6 1019.7 0.2
21/12:00am 10.1 6.9 9.8 98 0.2 NW 17 24 9 13 1020.2 1020.2 0.2
 
Date/Time
WST
Temp
°C
App
Temp
°C
Dew
Point
°C
Rel
Hum
%
Delta-T
°C
Wind Press
QNH
hPa
Press
MSL
hPa
Rain since
9am
mm
Dir  Spd
km/h
Gust
km/h
Spd
kts
Gust
kts
20/11:30pm 10.2 6.3 9.4 95 0.4 NNW 20 30 11 16 1020.2 1020.2 0.0
20/11:00pm 10.4 6.0 9.0 91 0.7 NW 22 30 12 16 1020.6 1020.6 0.0
20/10:30pm 10.5 6.5 8.4 87 1.0 NW 19 28 10 15 1020.7 1020.7 0.0
20/10:00pm 10.4 7.6 8.5 88 0.9 NW 13 17 7 9 1020.8 1020.8 0.0
20/09:30pm 10.2 7.0 8.5 89 0.8 NNW 15 19 8 10 1020.8 1020.8 0.0
20/09:00pm 10.5 7.1 9.1 91 0.7 NW 17 26 9 14 1021.1 1021.1 0.0
20/08:30pm 10.4 7.4 9.3 93 0.5 NW 15 20 8 11 1021.3 1021.3 0.0
20/08:00pm 11.0 8.0 10.7 98 0.2 NW 17 24 9 13 1021.3 1021.3 0.0
20/07:30pm 10.9 8.7 10.7 99 0.1 NW 13 20 7 11 1021.3 1021.3 0.0
20/07:00pm 11.0 8.8 10.8 99 0.1 NW 13 17 7 9 1021.3 1021.3 0.0
20/06:30pm 11.3 9.2 11.0 98 0.2 NW 13 17 7 9 1021.2 1021.2 0.0
20/06:00pm 11.4 8.9 10.9 97 0.3 NW 15 20 8 11 1021.1 1021.1 0.0
20/05:30pm 11.7 9.5 10.8 94 0.5 WNW 13 20 7 11 1021.3 1021.3 0.0
20/05:00pm 12.1 10.1 10.2 88 1.0 W 11 17 6 9 1021.3 1021.3 0.0
20/04:30pm 13.1 11.0 9.7 80 1.7 WNW 11 15 6 8 1021.1 1021.1 0.0
20/04:00pm 13.7 11.2 9.7 77 2.1 WSW 13 17 7 9 1021.0 1021.0 0.0
20/03:30pm 14.6 13.0 10.2 75 2.3 W 9 17 5 9 1021.2 1021.2 0.0
20/03:00pm 14.1 12.0 9.9 76 2.2 WSW 11 17 6 9 1021.3 1021.3 0.0
20/02:30pm 14.4 11.8 9.4 72 2.6 WSW 13 20 7 11 1021.5 1021.5 0.0
20/02:00pm 14.3 11.5 8.7 69 2.8 WSW 13 19 7 10 1021.6 1021.6 0.0
20/01:30pm 14.9 12.2 8.8 67 3.1 WSW 13 19 7 10 1021.7 1021.7 0.0
20/01:00pm 14.9 12.1 9.9 72 2.6 SW 15 26 8 14 1022.1 1022.1 0.0
20/12:30pm 13.6 11.7 8.9 73 2.4 SW 9 13 5 7 1022.7 1022.7 0.0
20/12:00pm 13.4 11.1 8.9 74 2.3 WNW 11 15 6 8 1023.0 1023.0 0.0
20/11:30am 13.5 10.7 8.4 71 2.6 W 13 20 7 11 1023.5 1023.5 0.0
20/11:00am 13.9 11.6 8.9 72 2.5 WSW 11 17 6 9 1023.6 1023.6 0.0
20/10:30am 12.5 10.6 9.0 79 1.8 W 9 15 5 8 1023.9 1023.9 0.0
20/10:00am 12.1 9.9 9.3 83 1.4 W 11 20 6 11 1023.8 1023.8 0.0
20/09:30am 11.8 10.3 9.0 83 1.4 W 7 11 4 6 1023.6 1023.6 0.0
20/09:00am 11.4 9.9 9.0 85 1.2 W 7 11 4 6 1023.6 1023.6 16.0
20/08:30am 10.8 9.7 8.6 86 1.1 WSW 4 9 2 5 1023.4 1023.4 16.0
20/08:00am 10.5 9.4 8.4 87 1.0 WSW 4 7 2 4 1023.0 1023.0 16.0
20/07:30am 10.3 8.7 8.1 86 1.1 W 6 9 3 5 1022.7 1022.7 16.0
20/07:00am 10.3 8.7 8.1 86 1.1 SW 6 9 3 5 1022.4 1022.4 16.0
20/06:30am 10.4 8.8 8.0 85 1.2 SW 6 7 3 4 1022.2 1022.2 16.0
20/06:00am 10.5 8.4 8.1 85 1.2 SW 9 13 5 7 1022.0 1022.0 16.0
20/05:30am 10.4 7.9 8.3 87 1.0 SW 11 17 6 9 1021.7 1021.7 16.0
20/05:00am 10.2 8.2 8.6 90 0.8 SW 9 15 5 8 1021.6 1021.6 16.0
20/04:30am 10.1 8.1 8.7 91 0.7 SW 9 17 5 9 1021.5 1021.5 15.8
20/04:00am 10.3 7.9 8.7 90 0.8 SSW 11 17 6 9 1021.3 1021.3 15.8
20/03:30am 10.6 7.8 8.5 87 1.0 SW 13 20 7 11 1021.2 1021.2 15.6
20/03:00am 10.5 7.0 8.8 89 0.8 SSW 17 32 9 17 1020.9 1020.9 15.6
20/02:30am 10.7 7.7 9.1 90 0.8 SW 15 28 8 15 1020.7 1020.7 15.6
20/02:00am 10.8 8.6 9.2 90 0.8 SW 11 30 6 16 1020.4 1020.4 15.4
20/01:30am 10.9 7.9 9.3 90 0.8 SW 15 24 8 13 1020.3 1020.3 15.4
20/01:00am 10.9 7.6 9.5 91 0.7 SSW 17 28 9 15 1020.3 1020.3 15.4
20/12:30am 10.8 7.5 9.6 92 0.6 SW 17 37 9 20 1020.2 1020.2 15.4
20/12:00am 11.1 6.9 9.7 91 0.7 SSW 22 35 12 19 1020.1 1020.1 15.4
 
Date/Time
WST
Temp
°C
App
Temp
°C
Dew
Point
°C
Rel
Hum
%
Delta-T
°C
Wind Press
QNH
hPa
Press
MSL
hPa
Rain since
9am
mm
Dir  Spd
km/h
Gust
km/h
Spd
kts
Gust
kts
19/11:30pm 11.4 7.7 10.0 91 0.7 SSW 20 35 11 19 1020.0 1020.0 15.2
19/11:00pm 11.3 7.3 10.4 94 0.5 SSW 22 33 12 18 1019.9 1019.9 15.2

Other Formats:

Comma delimited format used in spreadsheet applications
http://www.bom.gov.au/fwo/IDW60801/IDW60801.95647.axf

JavaScript Object Notation format (JSON) in row-major order
http://www.bom.gov.au/fwo/IDW60801/IDW60801.95647.json